Insider Stock Trading History of Armen Garo H


The following table details the trading activities (stock purchases, stock sales, and stock option exercises) reported to the Securities and Exchange Commission (SEC) by insider Armen Garo H since year 2005. The trader's CIK number is 935679. At the time of this reporting, Armen Garo H is the Chairman & CEO of Antigenics Inc /de/ . (stock ticker symbol AGEN). See this page for all insider trading activities at Antigenics Inc /de/ .

Note that in the past ARMEN GARO H also reported insider trading activities as an insider of the following companies:
Stock purchases, sales, and option exercises reported by insider Armen Garo H since 2005.
  Trade Date   Symbol Company Name (Issuer) Trade Type     Shares       Price ($)   Value ($)
2017-04-10 AGEN Antigenics Inc /de/ Buy 70,544 3.37 237,451
2017-04-12 AGEN Antigenics Inc /de/ Buy 29,456 3.29 97,057
2016-06-17 ATRND Mplc, Inc. Buy 60,211 1.25 75,263
2016-05-09 AGEN Antigenics Inc /de/ Buy 50,000 3.28 163,950
2016-05-05 AGEN Antigenics Inc /de/ Buy 50,000 3.08 153,950
2016-03-07 AGEN Antigenics Inc /de/ Buy 200,000 4.03 805,599
2015-12-29 AGEN Antigenics Inc /de/ Sale 85,224 4.57 389,644
2015-12-28 AGEN Antigenics Inc /de/ Sale 134,352 4.61 618,825
2015-09-25 AGEN Antigenics Inc /de/ Buy 100,000 5.03 503,000
2011-09-30 AGEND Antigenics Inc /de/ Buy 16,666 2.99 49,764
2011-08-16 AGEN Antigenics Inc /de/ Buy 2,150,976 .51 1,096,997
2010-03-11 AGEN Antigenics Inc /de/ Sale 87,628 .79 68,963
2009-07-15 AGEN Antigenics Inc /de/ Sale 38,015 1.76 67,020
2009-07-16 AGEN Antigenics Inc /de/ Sale 99,683 1.62 161,287
2009-06-25 AGEN Antigenics Inc /de/ Buy 25,000 1.97 49,250
2008-01-09 AGEN Antigenics Inc /de/ Buy 1,708,717 3.00 5,126,151
2007-09-14 AGEN Antigenics Inc /de/ Buy 50,000 2.33 116,550
2007-03-15 AGEN Antigenics Inc /de/ Buy 10,000 2.03 20,290
2007-03-13 AGEN Antigenics Inc /de/ Buy 10,000 2.00 20,000
2007-03-14 AGEN Antigenics Inc /de/ Buy 15,000 2.01 30,089
2007-03-12 AGEN Antigenics Inc /de/ Buy 25,000 1.91 47,800
2007-03-08 AGEN Antigenics Inc /de/ Buy 25,000 1.82 45,525
2007-03-09 AGEN Antigenics Inc /de/ Buy 25,000 1.83 45,725
2007-02-09 AGEN Antigenics Inc /de/ Buy 50,000 1.93 96,500
2006-11-15 CLRK Color Kinetics Inc Option Ex 190,000 2.38 452,200
2006-11-15 CLRK Color Kinetics Inc Sale 190,000 17.95 3,411,449
2006-02-22 AGEN Antigenics Inc /de/ Option Ex 51,610 1.45 74,834

Insider trading activities including stock purchases, stock sales, and option exercises listed in the above table cannot be completely guaranteed as to their accuracy. For more information regarding the trades made by Armen Garo H (Chairman & CEO of Antigenics Inc /de/ at the time of this reporting) see the Securities and Exchange Commission (SEC) website.